Time;durP1;ratioP1;P1;durP2;ratioP2;P2;SDS_P1;SDS_P2;PMS_P1;PMS_P2;Temp;Humidity;BMP_temperature;BMP_pressure;BME280_temperature;BME280_humidity;BME280_pressure;Samples;Min_cycle;Max_cycle;Signal;HPM_P1;HPM_P2
2022/10/23 00:01:51;;;;;;;;;;;;;;;11.34;99.03;97404.77;107671;1268;59711;-64
2022/10/23 00:04:24;;;;;;;;;;;;;;;11.34;99.48;97405.15;107680;1264;71217;-64
2022/10/23 00:06:53;;;;;;;;;;;;;;;11.33;99.22;97402.58;107651;1268;68439;-64
2022/10/23 00:09:23;;;;;;;;;;;;;;;11.32;99.70;97403.34;107675;1268;69209;-64
2022/10/23 00:11:52;;;;;;;;;;;;;;;11.30;98.75;97408.03;107643;1267;59693;-64
2022/10/23 00:14:23;;;;;;;;;;;;;;;11.30;94.03;97411.55;107660;1267;59697;-64
2022/10/23 00:16:53;;;;;;;;;;;;;;;11.32;93.26;97415.41;107657;1267;71361;-64
2022/10/23 00:19:24;;;;;;;;;;;;;;;11.35;92.43;97419.20;107658;1269;68396;-64
2022/10/23 00:21:53;;;;;;;;;;;;;;;11.37;92.01;97422.52;107619;1270;69365;-65
2022/10/23 00:24:22;;;;;;;;;;;;;;;11.40;90.10;97434.84;107645;1267;59763;-64
2022/10/23 00:26:50;;;;;;;;;;;;;;;11.43;91.14;97442.50;107634;1271;59741;-65
2022/10/23 00:29:20;;;;;;;;;;;;;;;11.45;90.19;97443.20;107704;1267;72093;-64
2022/10/23 00:31:49;;;;;;;;;;;;;;;11.47;89.15;97450.23;107693;1265;69490;-64
2022/10/23 00:34:19;;;;;;;;;;;;;;;11.50;90.22;97456.45;107674;1268;70341;-65
2022/10/23 00:36:49;;;;;;;;;;;;;;;11.51;90.32;97456.73;107623;1270;59738;-65
2022/10/23 00:39:20;;;;;;;;;;;;;;;11.52;90.67;97457.03;107676;1268;59693;-65
2022/10/23 00:41:51;;;;;;;;;;;;;;;11.46;94.17;97450.60;107658;1269;72198;-65
2022/10/23 00:44:21;;;;;;;;;;;;;;;11.42;94.86;97450.91;107656;1269;68989;-65
2022/10/23 00:46:51;;;;;;;;;;;;;;;11.40;94.50;97454.45;107630;1267;69663;-65
2022/10/23 00:49:21;;;;;;;;;;;;;;;11.36;94.84;97453.10;107706;1268;59771;-65
2022/10/23 00:52:03;;;;;;;;;;;;;;;11.35;94.01;97459.52;107657;1265;59778;-65
2022/10/23 00:54:37;;;;;;;;;;;;;;;11.35;92.99;97467.23;107666;1268;70639;-65
2022/10/23 00:57:09;;;;;;;;;;;;;;;11.33;97.37;97462.23;107624;1268;69864;-65
2022/10/23 00:59:39;;;;;;;;;;;;;;;11.31;97.24;97462.25;107654;1268;68421;-65
2022/10/23 01:02:09;;;;;;;;;;;;;;;11.28;94.75;97460.52;107644;1270;59796;-65
2022/10/23 01:04:39;;;;;;;;;;;;;;;11.24;93.38;97455.43;107669;1271;59790;-65
2022/10/23 01:07:31;;;;;;;;;;;;;;;11.19;95.40;97454.56;107649;1271;71941;-65
2022/10/23 01:10:27;;;;;;;;;;;;;;;11.15;95.33;97453.63;107713;1265;69157;-65
2022/10/23 01:12:57;;;;;;;;;;;;;;;11.13;94.91;97451.04;107644;1266;69399;-66
2022/10/23 01:15:30;;;;;;;;;;;;;;;11.08;95.80;97449.80;107625;1266;59730;-66
2022/10/23 01:18:05;;;;;;;;;;;;;;;11.04;96.47;97448.92;107683;1269;59719;-64
2022/10/23 01:20:39;;;;;;;;;;;;;;;11.00;98.97;97454.59;107777;1268;71644;-66
2022/10/23 01:23:22;;;;;;;;;;;;;;;10.97;99.94;97455.84;107391;1267;69441;-66
2022/10/23 01:25:51;;;;;;;;;;;;;;;10.98;100.00;97456.30;107639;1265;69125;-66
2022/10/23 01:28:25;;;;;;;;;;;;;;;11.06;100.00;97453.27;107649;1269;59735;-64
2022/10/23 01:30:56;;;;;;;;;;;;;;;11.09;100.00;97450.83;107681;1268;59674;-64
2022/10/23 01:33:41;;;;;;;;;;;;;;;11.06;100.00;97458.33;107621;1268;71763;-64
2022/10/23 01:36:14;;;;;;;;;;;;;;;11.04;100.00;97467.23;107674;1266;68538;-64
2022/10/23 01:38:55;;;;;;;;;;;;;;;11.00;100.00;97470.79;107642;1268;69305;-66
2022/10/23 01:41:35;;;;;;;;;;;;;;;10.98;100.00;97474.63;107706;1269;59901;-65
2022/10/23 01:44:08;;;;;;;;;;;;;;;10.98;100.00;97477.41;107506;1265;59685;-66
2022/10/23 01:46:38;;;;;;;;;;;;;;;11.00;100.00;97479.56;107635;1270;71378;-65
2022/10/23 01:49:11;;;;;;;;;;;;;;;11.02;100.00;97481.50;107677;1270;68512;-65
2022/10/23 01:51:44;;;;;;;;;;;;;;;11.10;100.00;97487.18;107596;1271;68439;-64
2022/10/23 01:54:15;;;;;;;;;;;;;;;11.15;100.00;97487.64;107642;1268;59681;-65
2022/10/23 01:56:45;;;;;;;;;;;;;;;11.19;100.00;97486.50;107735;1263;59768;-64
2022/10/23 01:59:21;;;;;;;;;;;;;;;11.24;100.00;97490.84;107639;1271;72491;-64
2022/10/23 02:01:53;;;;;;;;;;;;;;;11.28;100.00;97494.77;107743;1269;69247;-64
2022/10/23 02:04:30;;;;;;;;;;;;;;;11.33;100.00;97497.00;107610;1267;69290;-64
2022/10/23 02:06:59;;;;;;;;;;;;;;;11.36;100.00;97499.52;107656;1271;59700;-64
2022/10/23 02:09:28;;;;;;;;;;;;;;;11.40;100.00;97502.39;107702;1266;59703;-64
2022/10/23 02:12:01;;;;;;;;;;;;;;;11.46;100.00;97507.87;107727;1265;71411;-64
2022/10/23 02:14:50;;;;;;;;;;;;;;;11.51;100.00;97513.45;107696;1266;69195;-64
2022/10/23 02:17:30;;;;;;;;;;;;;;;11.55;100.00;97516.13;107669;1269;69308;-64
2022/10/23 02:20:16;;;;;;;;;;;;;;;11.57;100.00;97514.77;107696;1265;59713;-64
2022/10/23 02:22:53;;;;;;;;;;;;;;;11.61;100.00;97519.50;107712;1258;59706;-64
2022/10/23 02:25:29;;;;;;;;;;;;;;;11.62;100.00;97519.08;107699;1264;70655;-65
2022/10/23 02:28:02;;;;;;;;;;;;;;;11.64;100.00;97521.86;107705;1268;69274;-66
2022/10/23 02:30:42;;;;;;;;;;;;;;;11.65;100.00;97528.77;107687;1265;69656;-64
2022/10/23 02:33:12;;;;;;;;;;;;;;;11.67;100.00;97531.63;107711;1268;59771;-66
2022/10/23 02:35:44;;;;;;;;;;;;;;;11.66;100.00;97536.22;107653;1270;59706;-65
2022/10/23 02:38:27;;;;;;;;;;;;;;;11.66;100.00;97542.48;107675;1269;71352;-64
2022/10/23 02:41:02;;;;;;;;;;;;;;;11.66;99.99;97542.15;107657;1269;69553;-66
2022/10/23 02:43:42;;;;;;;;;;;;;;;11.64;100.00;97550.20;107689;1264;69276;-64
2022/10/23 02:46:21;;;;;;;;;;;;;;;11.62;100.00;97558.02;107664;1269;59735;-67
2022/10/23 02:49:10;;;;;;;;;;;;;;;11.60;99.90;97568.64;107684;1266;60103;-64
2022/10/23 02:51:46;;;;;;;;;;;;;;;11.58;99.49;97575.25;107670;1268;71273;-64
2022/10/23 02:54:41;;;;;;;;;;;;;;;11.55;99.32;97577.74;107717;1268;69223;-64
2022/10/23 02:57:26;;;;;;;;;;;;;;;11.55;98.74;97579.13;107695;1266;69322;-64
2022/10/23 02:59:56;;;;;;;;;;;;;;;11.52;98.36;97583.52;107642;1262;59744;-64
2022/10/23 03:02:33;;;;;;;;;;;;;;;11.51;98.21;97589.86;107660;1265;59670;-64
2022/10/23 03:05:04;;;;;;;;;;;;;;;11.51;98.04;97588.34;107742;1267;70603;-64
2022/10/23 03:07:34;;;;;;;;;;;;;;;11.50;97.78;97586.48;107687;1268;68462;-64
2022/10/23 03:10:07;;;;;;;;;;;;;;;11.46;97.90;97589.36;107638;1265;69585;-64
2022/10/23 03:12:38;;;;;;;;;;;;;;;11.43;98.43;97597.13;107705;1269;59764;-64
2022/10/23 03:15:10;;;;;;;;;;;;;;;11.42;98.13;97604.17;107654;1267;59704;-64
2022/10/23 03:17:40;;;;;;;;;;;;;;;11.36;98.54;97608.08;107665;1269;71739;-64
2022/10/23 03:20:10;;;;;;;;;;;;;;;11.35;98.75;97613.56;107786;1265;68911;-65
2022/10/23 03:22:39;;;;;;;;;;;;;;;11.36;98.28;97613.34;107691;1268;69162;-64
2022/10/23 03:25:09;;;;;;;;;;;;;;;11.32;99.10;97607.64;107793;1265;59728;-64
2022/10/23 03:27:38;;;;;;;;;;;;;;;11.30;99.25;97613.26;107651;1264;59712;-64
2022/10/23 03:30:09;;;;;;;;;;;;;;;11.28;99.25;97616.15;107545;1269;71379;-64
2022/10/23 03:32:39;;;;;;;;;;;;;;;11.27;99.04;97619.73;107663;1266;69069;-65
2022/10/23 03:35:09;;;;;;;;;;;;;;;11.25;99.05;97622.86;107687;1259;70313;-65
2022/10/23 03:37:39;;;;;;;;;;;;;;;11.26;98.87;97623.80;107671;1269;59779;-65
2022/10/23 03:40:11;;;;;;;;;;;;;;;11.25;98.74;97625.84;107648;1270;59689;-65
2022/10/23 03:42:40;;;;;;;;;;;;;;;11.26;98.18;97624.36;107678;1265;70669;-65
2022/10/23 03:45:12;;;;;;;;;;;;;;;11.24;97.81;97629.54;107685;1268;68685;-65
2022/10/23 03:47:42;;;;;;;;;;;;;;;11.23;98.04;97632.38;107638;1268;68779;-65
2022/10/23 03:50:12;;;;;;;;;;;;;;;11.21;97.77;97633.88;107661;1271;59780;-65
2022/10/23 03:52:42;;;;;;;;;;;;;;;11.21;98.12;97634.97;107726;1269;59793;-65
2022/10/23 03:55:12;;;;;;;;;;;;;;;11.16;98.40;97644.59;107688;1270;70619;-65
2022/10/23 03:57:41;;;;;;;;;;;;;;;11.14;98.35;97649.42;107729;1269;68456;-65
2022/10/23 04:00:12;;;;;;;;;;;;;;;11.14;98.41;97654.20;107642;1265;68563;-65
2022/10/23 04:02:44;;;;;;;;;;;;;;;11.10;98.76;97659.13;107674;1268;59709;-66
2022/10/23 04:05:15;;;;;;;;;;;;;;;11.10;98.66;97665.95;107776;1267;59813;-65
2022/10/23 04:07:49;;;;;;;;;;;;;;;11.10;98.19;97669.79;107688;1262;71640;-65
2022/10/23 04:10:18;;;;;;;;;;;;;;;11.09;98.07;97674.23;107621;1268;68641;-65
2022/10/23 04:12:47;;;;;;;;;;;;;;;11.06;97.92;97678.23;107517;1270;68494;-65
2022/10/23 04:15:16;;;;;;;;;;;;;;;11.05;98.34;97682.39;107658;1255;59775;-65
2022/10/23 04:17:46;;;;;;;;;;;;;;;11.00;98.91;97681.64;107667;1270;59694;-65
2022/10/23 04:20:15;;;;;;;;;;;;;;;11.01;98.16;97678.60;107680;1261;72141;-65
2022/10/23 04:22:44;;;;;;;;;;;;;;;11.00;98.45;97682.85;107660;1268;69245;-65
2022/10/23 04:25:13;;;;;;;;;;;;;;;10.97;98.31;97683.42;107716;1272;68729;-65
2022/10/23 04:27:42;;;;;;;;;;;;;;;10.97;98.80;97686.42;107691;1266;59728;-68
2022/10/23 04:30:11;;;;;;;;;;;;;;;10.97;97.96;97688.48;107703;1267;59763;-66
2022/10/23 04:32:40;;;;;;;;;;;;;;;10.97;98.09;97689.90;107653;1269;70456;-66
2022/10/23 04:35:08;;;;;;;;;;;;;;;10.98;98.13;97685.66;107579;1268;69254;-66
2022/10/23 04:37:37;;;;;;;;;;;;;;;10.96;98.35;97687.36;107640;1269;69336;-66
2022/10/23 04:40:07;;;;;;;;;;;;;;;10.97;98.63;97692.70;107652;1265;59765;-66
2022/10/23 04:42:37;;;;;;;;;;;;;;;10.95;98.66;97698.58;107669;1268;59766;-66
2022/10/23 04:45:06;;;;;;;;;;;;;;;10.94;98.96;97699.19;107630;1268;70615;-66
2022/10/23 04:47:36;;;;;;;;;;;;;;;10.92;99.18;97698.27;107639;1268;69268;-66
2022/10/23 04:50:06;;;;;;;;;;;;;;;10.92;98.88;97699.33;107660;1268;68307;-66
2022/10/23 04:52:54;;;;;;;;;;;;;;;10.92;98.78;97700.52;107641;1267;59769;-66
2022/10/23 04:55:47;;;;;;;;;;;;;;;10.91;98.35;97702.52;107676;1265;59678;-66
2022/10/23 04:58:24;;;;;;;;;;;;;;;10.91;98.71;97704.79;107716;1264;70693;-67
2022/10/23 05:00:53;;;;;;;;;;;;;;;10.90;98.25;97701.20;107667;1271;69930;-64
2022/10/23 05:03:25;;;;;;;;;;;;;;;10.86;99.14;97708.08;107617;1265;69930;-64
2022/10/23 05:05:54;;;;;;;;;;;;;;;10.86;99.06;97718.93;107661;1265;59705;-66
2022/10/23 05:08:55;;;;;;;;;;;;;;;10.90;98.33;97724.19;107594;1268;59709;-66
2022/10/23 05:11:50;;;;;;;;;;;;;;;10.89;98.71;97728.26;107614;1268;72055;-67
2022/10/23 05:14:20;;;;;;;;;;;;;;;10.90;98.55;97726.28;107643;1264;69227;-65
2022/10/23 05:16:56;;;;;;;;;;;;;;;10.92;97.39;97728.92;107646;1265;69317;-64
2022/10/23 05:19:39;;;;;;;;;;;;;;;10.94;97.84;97732.66;107700;1269;59781;-64
2022/10/23 05:22:08;;;;;;;;;;;;;;;10.92;98.51;97735.75;107635;1269;59739;-64
2022/10/23 05:24:47;;;;;;;;;;;;;;;10.91;98.70;97740.31;107617;1268;72181;-64
2022/10/23 05:27:22;;;;;;;;;;;;;;;10.94;98.97;97743.30;107670;1269;69748;-64
2022/10/23 05:29:52;;;;;;;;;;;;;;;10.94;98.94;97745.51;107637;1268;69388;-64
2022/10/23 05:32:26;;;;;;;;;;;;;;;10.95;98.43;97749.83;107613;1270;59781;-64
2022/10/23 05:34:55;;;;;;;;;;;;;;;10.96;97.85;97752.89;107670;1267;59710;-64
2022/10/23 05:37:27;;;;;;;;;;;;;;;10.97;98.30;97757.41;107643;1268;71432;-64
2022/10/23 05:40:09;;;;;;;;;;;;;;;10.92;98.35;97764.14;107621;1268;69286;-64
2022/10/23 05:42:39;;;;;;;;;;;;;;;10.97;97.56;97766.98;107668;1269;68825;-64
2022/10/23 05:45:11;;;;;;;;;;;;;;;10.99;97.49;97772.77;107718;1267;60109;-64
2022/10/23 05:47:59;;;;;;;;;;;;;;;10.99;97.67;97772.04;107445;1271;59741;-64
2022/10/23 05:51:08;;;;;;;;;;;;;;;10.98;98.29;97774.94;107639;1265;71653;-64
2022/10/23 05:53:44;;;;;;;;;;;;;;;10.99;98.49;97782.20;107607;1269;68478;-64
2022/10/23 05:56:42;;;;;;;;;;;;;;;11.00;97.85;97782.44;107631;1270;69927;-64
2022/10/23 05:59:20;;;;;;;;;;;;;;;11.02;98.17;97792.60;107595;1269;59770;-64
2022/10/23 06:01:54;;;;;;;;;;;;;;;11.02;98.48;97800.13;107606;1268;59738;-64
2022/10/23 06:04:41;;;;;;;;;;;;;;;11.03;97.52;97804.94;107662;1267;71719;-64
2022/10/23 06:07:39;;;;;;;;;;;;;;;11.01;97.41;97808.73;107336;1270;69197;-64
2022/10/23 06:10:09;;;;;;;;;;;;;;;11.00;97.47;97812.27;107648;1265;69969;-64
2022/10/23 06:12:41;;;;;;;;;;;;;;;11.01;97.56;97811.50;107610;1270;59695;-64
2022/10/23 06:15:11;;;;;;;;;;;;;;;11.01;97.80;97810.98;107640;1271;59739;-64
2022/10/23 06:18:01;;;;;;;;;;;;;;;11.01;98.12;97813.61;107613;1265;72132;-65
2022/10/23 06:20:34;;;;;;;;;;;;;;;11.04;97.23;97816.02;107652;1270;69950;-65
2022/10/23 06:23:07;;;;;;;;;;;;;;;11.05;97.04;97819.08;107612;1269;69898;-64
2022/10/23 06:25:56;;;;;;;;;;;;;;;11.09;96.52;97822.50;107488;1271;59730;-65
2022/10/23 06:28:37;;;;;;;;;;;;;;;11.14;96.24;97823.35;107638;1268;59713;-65
2022/10/23 06:31:10;;;;;;;;;;;;;;;11.19;95.37;97827.34;107682;1264;71411;-65
2022/10/23 06:33:39;;;;;;;;;;;;;;;11.25;95.67;97833.93;107621;1268;68866;-64
2022/10/23 06:36:09;;;;;;;;;;;;;;;11.30;95.53;97832.39;107609;1269;70203;-65
2022/10/23 06:38:39;;;;;;;;;;;;;;;11.37;95.18;97836.81;107640;1269;59738;-65
2022/10/23 06:41:15;;;;;;;;;;;;;;;11.41;94.29;97837.35;107644;1264;59735;-65
2022/10/23 06:43:49;;;;;;;;;;;;;;;11.42;94.66;97838.52;107641;1264;71238;-65
2022/10/23 06:46:39;;;;;;;;;;;;;;;11.47;94.76;97837.48;107663;1270;69526;-65
2022/10/23 06:49:39;;;;;;;;;;;;;;;11.51;93.88;97833.55;107414;1269;69924;-66
2022/10/23 06:52:08;;;;;;;;;;;;;;;11.53;93.91;97831.70;107673;1269;59769;-64
2022/10/23 06:54:45;;;;;;;;;;;;;;;11.56;93.59;97839.45;107652;1271;59738;-64
2022/10/23 06:57:24;;;;;;;;;;;;;;;11.61;93.40;97837.52;107696;1269;71732;-65
2022/10/23 06:59:53;;;;;;;;;;;;;;;11.62;93.57;97840.45;107708;1267;69691;-66
2022/10/23 07:02:21;;;;;;;;;;;;;;;11.64;94.00;97843.05;107571;1272;69639;-65
2022/10/23 07:04:50;;;;;;;;;;;;;;;11.64;94.27;97842.39;107482;1270;59782;-65
2022/10/23 07:07:19;;;;;;;;;;;;;;;11.66;94.16;97844.03;107675;1268;59657;-65
2022/10/23 07:09:48;;;;;;;;;;;;;;;11.65;93.35;97851.55;107672;1270;71302;-65
2022/10/23 07:12:23;;;;;;;;;;;;;;;11.60;93.17;97851.96;107607;1269;69577;-66
2022/10/23 07:15:03;;;;;;;;;;;;;;;11.60;93.26;97855.58;107519;1270;68746;-66
2022/10/23 07:17:31;;;;;;;;;;;;;;;11.59;93.44;97854.41;107653;1266;59730;-66
2022/10/23 07:19:59;;;;;;;;;;;;;;;11.59;93.12;97854.58;107576;1269;59767;-66
2022/10/23 07:22:28;;;;;;;;;;;;;;;11.58;93.74;97855.01;107648;1269;72111;-66
2022/10/23 07:25:09;;;;;;;;;;;;;;;11.60;94.14;97857.34;107626;1266;69837;-64
2022/10/23 07:27:38;;;;;;;;;;;;;;;11.63;94.23;97860.64;107347;1269;436767;-64
2022/10/23 07:30:09;;;;;;;;;;;;;;;11.65;93.27;97864.30;107671;1269;59764;-64
2022/10/23 07:32:43;;;;;;;;;;;;;;;11.68;93.33;97867.94;107649;1268;59707;-64
2022/10/23 07:35:48;;;;;;;;;;;;;;;11.63;93.73;97868.44;107405;1273;71364;-64
2022/10/23 07:38:24;;;;;;;;;;;;;;;11.73;92.98;97868.46;107621;1269;68917;-64
2022/10/23 07:40:56;;;;;;;;;;;;;;;11.75;93.11;97868.31;107623;1269;69240;-65
2022/10/23 07:43:25;;;;;;;;;;;;;;;11.87;92.86;97872.44;107675;1270;59776;-66
2022/10/23 07:45:54;;;;;;;;;;;;;;;11.98;93.32;97874.39;107639;1269;59742;-66
2022/10/23 07:48:31;;;;;;;;;;;;;;;12.10;92.36;97875.98;107634;1267;71824;-66
2022/10/23 07:51:00;;;;;;;;;;;;;;;12.10;91.19;97877.90;107660;1268;68288;-66
2022/10/23 07:53:30;;;;;;;;;;;;;;;12.22;91.08;97883.34;107679;1266;68585;-67
2022/10/23 07:56:15;;;;;;;;;;;;;;;12.30;90.10;97884.54;107642;1269;59730;-66
2022/10/23 07:59:09;;;;;;;;;;;;;;;12.48;90.14;97880.94;107627;1269;59830;-64
2022/10/23 08:01:38;;;;;;;;;;;;;;;12.67;88.92;97881.95;107696;1269;72023;-65
2022/10/23 08:04:08;;;;;;;;;;;;;;;12.77;88.94;97884.05;107665;1269;69855;-65
2022/10/23 08:06:41;;;;;;;;;;;;;;;12.80;87.90;97891.20;107623;1266;69381;-65
2022/10/23 08:09:10;;;;;;;;;;;;;;;12.75;87.94;97886.27;107619;1269;59779;-65
2022/10/23 08:11:39;;;;;;;;;;;;;;;12.73;87.37;97889.80;107635;1270;59669;-64
2022/10/23 08:14:09;;;;;;;;;;;;;;;12.63;86.90;97892.09;107736;1269;70737;-67
2022/10/23 08:16:39;;;;;;;;;;;;;;;12.57;87.30;97896.05;107667;1268;69009;-66
2022/10/23 08:19:33;;;;;;;;;;;;;;;12.52;87.83;97900.28;107681;1270;69981;-66
2022/10/23 08:22:02;;;;;;;;;;;;;;;12.48;87.96;97909.11;107700;1270;59748;-66
2022/10/23 08:24:31;;;;;;;;;;;;;;;12.42;87.52;97911.80;107709;1269;59676;-64
2022/10/23 08:26:59;;;;;;;;;;;;;;;12.37;87.11;97915.84;107649;1269;71872;-68
2022/10/23 08:29:28;;;;;;;;;;;;;;;12.32;87.20;97920.36;107598;1270;69428;-68
2022/10/23 08:31:57;;;;;;;;;;;;;;;12.30;87.60;97921.59;107653;1270;69604;-67
2022/10/23 08:34:30;;;;;;;;;;;;;;;12.28;87.06;97923.51;107632;1269;59715;-67
2022/10/23 08:36:59;;;;;;;;;;;;;;;12.22;87.29;97922.98;107632;1271;59703;-67
2022/10/23 08:39:27;;;;;;;;;;;;;;;12.19;87.22;97919.04;107619;1273;70452;-67
2022/10/23 08:42:17;;;;;;;;;;;;;;;12.21;87.52;97924.45;107626;1269;69601;-68
2022/10/23 08:44:51;;;;;;;;;;;;;;;12.23;87.44;97924.71;107661;1272;69924;-67
2022/10/23 08:47:26;;;;;;;;;;;;;;;12.23;87.78;97927.98;107636;1268;60012;-66
2022/10/23 08:50:13;;;;;;;;;;;;;;;12.31;87.84;97930.82;107626;1266;59694;-66
2022/10/23 08:52:51;;;;;;;;;;;;;;;12.33;87.99;97935.16;107661;1270;70917;-68
2022/10/23 08:55:26;;;;;;;;;;;;;;;12.33;88.49;97942.01;107676;1269;69361;-67
2022/10/23 08:58:00;;;;;;;;;;;;;;;12.33;88.28;97941.46;107652;1269;68765;-68
2022/10/23 09:00:29;;;;;;;;;;;;;;;12.35;87.91;97942.00;107646;1270;59819;-66
2022/10/23 09:02:59;;;;;;;;;;;;;;;12.33;87.39;97946.55;107655;1264;59749;-67
2022/10/23 09:05:30;;;;;;;;;;;;;;;12.29;87.47;97951.20;107627;1270;71468;-68
2022/10/23 09:08:17;;;;;;;;;;;;;;;12.30;87.44;97950.98;107654;1268;69901;-67
2022/10/23 09:10:46;;;;;;;;;;;;;;;12.28;88.34;97951.81;107632;1269;69970;-67
2022/10/23 09:13:18;;;;;;;;;;;;;;;12.28;88.32;97949.15;107569;1271;59740;-66
2022/10/23 09:15:52;;;;;;;;;;;;;;;12.34;87.77;97950.64;107638;1265;59731;-66
2022/10/23 09:18:23;;;;;;;;;;;;;;;12.41;87.76;97947.33;107634;1270;71424;-66
2022/10/23 09:20:52;;;;;;;;;;;;;;;12.53;87.54;97948.42;107617;1268;68590;-66
2022/10/23 09:23:22;;;;;;;;;;;;;;;12.65;86.94;97948.64;107665;1269;69894;-67
2022/10/23 09:25:55;;;;;;;;;;;;;;;12.75;86.57;97948.19;107664;1270;59795;-68
2022/10/23 09:28:30;;;;;;;;;;;;;;;12.89;86.34;97949.96;107647;1271;59677;-68
2022/10/23 09:31:06;;;;;;;;;;;;;;;13.00;84.58;97947.58;107771;1269;71206;-68
2022/10/23 09:33:36;;;;;;;;;;;;;;;13.08;84.47;97951.92;107654;1266;69295;-68
2022/10/23 09:36:04;;;;;;;;;;;;;;;13.06;83.86;97958.86;107645;1270;69950;-68
2022/10/23 09:38:32;;;;;;;;;;;;;;;13.12;83.78;97960.02;107640;1269;59735;-67
2022/10/23 09:41:04;;;;;;;;;;;;;;;13.19;83.50;97960.38;107616;1268;59730;-68
2022/10/23 09:43:32;;;;;;;;;;;;;;;13.24;83.51;97960.86;107647;1268;70324;-68
2022/10/23 09:46:05;;;;;;;;;;;;;;;13.29;83.43;97960.48;107687;1270;68527;-67
2022/10/23 09:48:34;;;;;;;;;;;;;;;13.32;83.18;97961.54;107651;1268;69371;-66
2022/10/23 09:51:12;;;;;;;;;;;;;;;13.31;82.77;97961.81;107665;1268;59703;-66
2022/10/23 09:53:55;;;;;;;;;;;;;;;13.32;82.86;97960.29;107704;1269;59728;-66
2022/10/23 09:56:30;;;;;;;;;;;;;;;13.33;82.63;97960.41;107652;1269;72301;-66
2022/10/23 09:59:10;;;;;;;;;;;;;;;13.32;83.04;97961.04;107647;1269;69401;-71
2022/10/23 10:01:46;;;;;;;;;;;;;;;13.35;82.85;97958.99;107649;1270;68698;-67
2022/10/23 10:04:35;;;;;;;;;;;;;;;13.41;82.45;97956.32;107453;1270;59771;-67
2022/10/23 10:07:05;;;;;;;;;;;;;;;13.41;82.10;97953.98;107617;1269;59711;-67
2022/10/23 10:09:33;;;;;;;;;;;;;;;13.44;82.24;97954.44;107638;1269;70598;-67
2022/10/23 10:12:08;;;;;;;;;;;;;;;13.49;81.94;97952.16;107633;1270;70027;-68
2022/10/23 10:14:55;;;;;;;;;;;;;;;13.57;81.94;97949.86;107630;1269;69136;-67
2022/10/23 10:17:42;;;;;;;;;;;;;;;13.62;81.58;97951.73;107626;1269;59731;-67
2022/10/23 10:20:20;;;;;;;;;;;;;;;13.63;82.31;97954.81;107640;1269;59658;-67
2022/10/23 10:22:52;;;;;;;;;;;;;;;13.65;81.34;97962.45;107621;1268;72138;-65
2022/10/23 10:25:36;;;;;;;;;;;;;;;13.62;80.88;97965.87;107648;1269;68514;-68
2022/10/23 10:28:07;;;;;;;;;;;;;;;13.60;81.09;97961.52;107680;1269;70624;-66
2022/10/23 10:30:46;;;;;;;;;;;;;;;13.52;81.49;97967.18;107630;1270;59789;-66
2022/10/23 10:33:25;;;;;;;;;;;;;;;13.46;81.69;97968.70;107655;1265;59787;-66
2022/10/23 10:36:12;;;;;;;;;;;;;;;13.45;81.58;97961.74;107688;1270;71996;-66
2022/10/23 10:38:40;;;;;;;;;;;;;;;13.44;81.57;97964.63;107616;1268;68721;-66
2022/10/23 10:41:20;;;;;;;;;;;;;;;13.41;81.48;97966.43;107642;1266;69986;-66
2022/10/23 10:43:57;;;;;;;;;;;;;;;13.39;81.92;97963.63;107660;1269;59696;-66
2022/10/23 10:46:43;;;;;;;;;;;;;;;13.42;82.38;97962.16;107668;1270;59771;-66
2022/10/23 10:49:24;;;;;;;;;;;;;;;13.50;82.19;97960.84;107642;1269;71963;-66
2022/10/23 10:52:31;;;;;;;;;;;;;;;13.58;82.57;97959.01;107656;1270;69955;-66
2022/10/23 10:55:04;;;;;;;;;;;;;;;13.69;82.43;97952.60;107590;1270;69774;-66
2022/10/23 10:57:35;;;;;;;;;;;;;;;13.79;82.04;97949.00;107627;1267;60161;-66
2022/10/23 11:00:14;;;;;;;;;;;;;;;13.86;81.99;97951.08;107648;1268;59719;-67
2022/10/23 11:02:46;;;;;;;;;;;;;;;13.84;81.32;97957.03;107667;1268;70801;-67
2022/10/23 11:05:24;;;;;;;;;;;;;;;13.80;81.30;97955.92;107618;1269;69271;-67
2022/10/23 11:07:52;;;;;;;;;;;;;;;13.73;81.31;97961.87;107662;1269;70031;-67
2022/10/23 11:10:20;;;;;;;;;;;;;;;13.64;81.64;97962.60;107618;1269;59735;-66
2022/10/23 11:12:50;;;;;;;;;;;;;;;13.58;81.64;97964.79;107673;1266;59715;-66
2022/10/23 11:15:21;;;;;;;;;;;;;;;13.50;81.70;97964.73;107658;1270;72158;-66
2022/10/23 11:18:00;;;;;;;;;;;;;;;13.41;82.31;97965.08;107633;1270;69582;-66
2022/10/23 11:20:43;;;;;;;;;;;;;;;13.35;83.30;97962.48;107655;1268;69303;-66
2022/10/23 11:23:26;;;;;;;;;;;;;;;13.37;83.79;97967.66;107631;1270;59771;-66
2022/10/23 11:26:27;;;;;;;;;;;;;;;13.42;82.67;97967.73;107664;1270;59690;-66
2022/10/23 11:29:12;;;;;;;;;;;;;;;13.45;83.20;97963.01;107536;1268;70612;-67
2022/10/23 11:31:59;;;;;;;;;;;;;;;13.51;83.04;97964.43;107658;1270;69028;-68
2022/10/23 11:34:30;;;;;;;;;;;;;;;13.60;82.24;97969.59;107616;1268;69825;-66
2022/10/23 11:37:03;;;;;;;;;;;;;;;13.61;82.08;97966.54;107616;1266;59720;-66
2022/10/23 11:39:33;;;;;;;;;;;;;;;13.66;82.36;97968.71;107623;1270;59727;-66
2022/10/23 11:42:06;;;;;;;;;;;;;;;13.70;81.57;97978.09;107585;1266;71734;-66
2022/10/23 11:44:45;;;;;;;;;;;;;;;13.70;81.25;97980.52;107670;1269;70142;-66
2022/10/23 11:47:24;;;;;;;;;;;;;;;13.71;80.77;97978.13;107679;1270;69782;-67
2022/10/23 11:50:13;;;;;;;;;;;;;;;13.73;81.39;97974.31;107632;1268;59714;-69
2022/10/23 11:52:53;;;;;;;;;;;;;;;13.83;81.34;97974.27;107647;1270;59731;-66
2022/10/23 11:55:55;;;;;;;;;;;;;;;13.89;80.17;97968.93;107653;1269;72055;-67
2022/10/23 11:58:30;;;;;;;;;;;;;;;13.97;79.97;97969.67;107669;1265;68382;-67
2022/10/23 12:01:02;;;;;;;;;;;;;;;14.05;79.81;97974.67;107823;1269;69231;-67
2022/10/23 12:04:00;;;;;;;;;;;;;;;14.13;79.10;97976.48;107679;1264;59721;-67
2022/10/23 12:06:38;;;;;;;;;;;;;;;14.21;77.99;97975.29;107575;1271;59704;-67
2022/10/23 12:09:26;;;;;;;;;;;;;;;14.33;78.15;97977.88;107719;1268;71985;-68
2022/10/23 12:12:07;;;;;;;;;;;;;;;14.55;77.85;97980.39;107663;1270;68758;-67
2022/10/23 12:14:35;;;;;;;;;;;;;;;14.86;76.28;97978.95;107714;1269;69530;-69
2022/10/23 12:17:21;;;;;;;;;;;;;;;15.05;75.81;97977.53;107622;1267;59762;-68
2022/10/23 12:19:50;;;;;;;;;;;;;;;15.22;74.34;97974.34;107797;1269;59770;-68
2022/10/23 12:22:21;;;;;;;;;;;;;;;15.16;73.09;97971.20;107642;1266;70611;-68
2022/10/23 12:24:58;;;;;;;;;;;;;;;15.16;73.61;97975.41;107642;1270;69307;-68
2022/10/23 12:27:52;;;;;;;;;;;;;;;15.13;72.94;97981.11;107720;1269;68865;-68
2022/10/23 12:30:22;;;;;;;;;;;;;;;15.17;72.78;97981.33;107471;1266;59715;-68
2022/10/23 12:33:09;;;;;;;;;;;;;;;15.22;72.39;97982.29;107722;1270;59737;-67
2022/10/23 12:35:50;;;;;;;;;;;;;;;15.24;71.78;97982.49;107688;1267;72450;-68
2022/10/23 12:38:22;;;;;;;;;;;;;;;15.05;72.64;97987.25;107685;1266;69427;-68
2022/10/23 12:40:59;;;;;;;;;;;;;;;15.01;72.30;97991.93;107678;1263;69058;-68
2022/10/23 12:43:32;;;;;;;;;;;;;;;14.94;72.65;97998.28;107719;1267;59775;-68
2022/10/23 12:46:04;;;;;;;;;;;;;;;14.79;73.01;98000.72;107599;1264;59744;-68
2022/10/23 12:48:33;;;;;;;;;;;;;;;14.67;73.69;97998.16;107603;1274;71392;-69
2022/10/23 12:51:01;;;;;;;;;;;;;;;14.61;73.84;97990.77;107700;1268;69917;-67
2022/10/23 12:53:30;;;;;;;;;;;;;;;14.50;74.38;97991.27;107630;1271;69488;-67
2022/10/23 12:55:59;;;;;;;;;;;;;;;14.46;74.25;97987.72;107632;1269;59788;-68
2022/10/23 12:58:34;;;;;;;;;;;;;;;14.34;74.79;97983.12;107635;1269;59768;-68
2022/10/23 13:01:05;;;;;;;;;;;;;;;14.36;74.97;97989.45;107698;1270;71696;-68
2022/10/23 13:03:34;;;;;;;;;;;;;;;14.41;74.61;97989.02;107610;1270;69322;-68
2022/10/23 13:06:04;;;;;;;;;;;;;;;14.49;74.92;97991.02;107657;1269;70029;-67
2022/10/23 13:08:35;;;;;;;;;;;;;;;14.83;74.58;97995.35;107641;1270;59773;-68
2022/10/23 13:11:34;;;;;;;;;;;;;;;15.36;72.47;97989.34;107577;1270;59701;-68
2022/10/23 13:14:27;;;;;;;;;;;;;;;15.83;70.37;97992.55;107667;1267;72092;-68
2022/10/23 13:17:09;;;;;;;;;;;;;;;15.92;69.55;97985.41;107674;1269;68291;-68